GEGSPOKANE INTL
METARs for airports near GEG, sorted by distance:
N 0 nm 2385' KGEG 222353Z 04004KT 3SM BR FEW003 OVC012 01/M01 A3051
W 4 nm 2462' KSKA 222308Z 03006KT 5SM BR OVC009 01/00 A3049
NE 9 nm 1956' KSFF 222353Z 00000KT 9SM OVC019 02/01 A3053
N 21 nm 2210' KDEW 230005Z 30003KT 10SM OVC015 02/M01 A3052
E 30 nm 2320' KCOE 222356Z 00000KT 10SM FEW021 03/M01 A3051
S 55 nm 2566' KPUW 222353Z 12003KT 10SM CLR 04/M01 A3050
NE 56 nm 2131' KSZT 230015Z 00000KT 10SM OVC025 01/M01 A3053
W 76 nm 1188' KMWH 222352Z 03003KT 10SM OVC006 00/M01 A3056
S 77 nm 1442' KLWS 222356Z 00000KT 10SM OVC005 01/M01 A3055
W 82 nm 1276' KEPH 222353Z 36008KT 10SM OVC006 M01/M03 A3055
E 91 nm 2466' KTHM 222155Z 24007KT 10SM 03/M01 A3048
NW 94 nm 1304' KOMK 222353Z 00000KT 1/4SM FZFG VV003 M04/M06 A3058
S 96 nm 1194' KALW 222353Z 00000KT M1/4SM FG VV001 01/01 A3053
TAFs for airports near GEG, sorted by distance:
N 0 nm 2385' KGEG KGEG 222339Z 2300/2324 04005KT 2SM BR SCT003 OVC010
  FM230200 03003KT 1/2SM FZFG OVC004
  FM230800 03003KT 1/4SM FZFG VV002
  FM231900 08003KT 3/4SM BR OVC003
  FM232100 VRB03KT 3SM BR OVC006
W 4 nm 2462' KSKA TAF
  AMD KSKA 222130Z 2221/2401 06006KT 6000 BR OVC005 620055 QNH3051INS
  TEMPO 2222/2201 OVC008 620084
  BECMG 2303/2304 02005KT 0400 FZFG VV001 620013 QNH3043INS
  BECMG 2311/2312 07004KT 1200 BR BKN004 620043 QNH3030INS TX01/2221Z TNM03/2313Z
NE 9 nm 1956' KSFF KSFF 222339Z 2300/2324 00000KT 6SM BR OVC015
  FM230500 00000KT 3SM BR OVC008
  FM230800 00000KT 1SM BR OVC005
  FM232200 00000KT 6SM BR OVC012
E 30 nm 2320' KCOE KCOE 222339Z 2300/2324 00000KT P6SM BKN018
  FM230300 00000KT 1SM BR BKN008 OVC015
  FM231000 02004KT 3SM BR OVC020
  FM231600 20003KT P6SM BKN025
S 55 nm 2566' KPUW TAF COR KPUW 222348Z 2300/2324 VRB05KT P6SM SCT250
W 76 nm 1188' KMWH TAF COR KMWH 222346Z 2300/2324 VRB04KT 6SM BR OVC006
  FM230200 36004KT 1/2SM FZFG OVC003
  FM230700 VRB03KT 1/4SM FZFG VV002
  FM232000 00000KT 3SM BR OVC003
  FM232200 33004KT 5SM BR OVC008
S 77 nm 1442' KLWS TAF COR KLWS 222352Z 2300/2324 00000KT 6SM BR BKN005
  FM230500 VRB03KT 2SM BR OVC003
  FM231400 19004KT 5SM BR BKN009
  FM232100 25005KT P6SM SCT250
S 96 nm 1194' KALW TAF KALW 222320Z 2300/2324 VRB04KT 3SM BR SCT002
  TEMPO 2300/2302 1/2SM FG VV001
  FM230200 VRB03KT 1/2SM FZFG VV002
  FM232100 22003KT 2SM BR BKN006

Shortcut to this page: http://wxbay.com.

Data may contain errors.